sensor_id;sensor_type;location;lat;lon;timestamp;pressure;altitude;pressure_sealevel;temperature;humidity
55540;BME280;41384;51.418;7.286;2023-05-14T00:00:21;100158.34;;;11.56;100.00
55540;BME280;41384;51.418;7.286;2023-05-14T00:02:46;100149.81;;;11.61;100.00
55540;BME280;41384;51.418;7.286;2023-05-14T00:05:11;100146.75;;;11.57;100.00
55540;BME280;41384;51.418;7.286;2023-05-14T00:07:36;100144.34;;;11.56;100.00
55540;BME280;41384;51.418;7.286;2023-05-14T00:10:02;100145.16;;;11.49;100.00
55540;BME280;41384;51.418;7.286;2023-05-14T00:12:27;100142.09;;;11.46;100.00
55540;BME280;41384;51.418;7.286;2023-05-14T00:14:54;100146.75;;;11.57;100.00
55540;BME280;41384;51.418;7.286;2023-05-14T00:17:19;100142.91;;;11.60;100.00
55540;BME280;41384;51.418;7.286;2023-05-14T00:19:44;100142.50;;;11.56;100.00
55540;BME280;41384;51.418;7.286;2023-05-14T00:22:10;100141.09;;;11.53;100.00
55540;BME280;41384;51.418;7.286;2023-05-14T00:24:36;100134.56;;;11.36;100.00
55540;BME280;41384;51.418;7.286;2023-05-14T00:27:02;100136.81;;;11.32;100.00
55540;BME280;41384;51.418;7.286;2023-05-14T00:29:27;100136.63;;;11.27;100.00
55540;BME280;41384;51.418;7.286;2023-05-14T00:31:53;100138.63;;;11.18;100.00
55540;BME280;41384;51.418;7.286;2023-05-14T00:34:18;100129.09;;;11.24;100.00
55540;BME280;41384;51.418;7.286;2023-05-14T00:36:43;100129.69;;;11.26;100.00
55540;BME280;41384;51.418;7.286;2023-05-14T00:39:08;100117.28;;;11.06;100.00
55540;BME280;41384;51.418;7.286;2023-05-14T00:41:34;100117.72;;;11.17;100.00
55540;BME280;41384;51.418;7.286;2023-05-14T00:43:59;100124.19;;;11.14;100.00
55540;BME280;41384;51.418;7.286;2023-05-14T00:46:25;100119.34;;;11.18;100.00
55540;BME280;41384;51.418;7.286;2023-05-14T00:48:50;100120.34;;;11.17;100.00
55540;BME280;41384;51.418;7.286;2023-05-14T00:51:17;100122.78;;;11.12;100.00
55540;BME280;41384;51.418;7.286;2023-05-14T00:53:43;100106.31;;;11.03;100.00
55540;BME280;41384;51.418;7.286;2023-05-14T00:56:09;100106.47;;;10.88;100.00
55540;BME280;41384;51.418;7.286;2023-05-14T00:58:34;100109.94;;;10.95;100.00
55540;BME280;41384;51.418;7.286;2023-05-14T01:01:00;100107.50;;;10.87;100.00
55540;BME280;41384;51.418;7.286;2023-05-14T01:03:25;100104.66;;;10.88;100.00
55540;BME280;41384;51.418;7.286;2023-05-14T01:06:12;100113.22;;;11.17;100.00
55540;BME280;41384;51.418;7.286;2023-05-14T01:08:44;100107.91;;;10.97;100.00
55540;BME280;41384;51.418;7.286;2023-05-14T01:11:32;100102.25;;;11.14;100.00
55540;BME280;41384;51.418;7.286;2023-05-14T01:16:56;100105.69;;;11.01;100.00
55540;BME280;41384;51.418;7.286;2023-05-14T01:19:36;100104.66;;;10.88;100.00
55540;BME280;41384;51.418;7.286;2023-05-14T01:22:01;100097.75;;;10.80;100.00
55540;BME280;41384;51.418;7.286;2023-05-14T01:24:27;100091.66;;;10.87;100.00
55540;BME280;41384;51.418;7.286;2023-05-14T01:26:54;100093.28;;;11.01;100.00
55540;BME280;41384;51.418;7.286;2023-05-14T01:29:25;100087.78;;;10.96;100.00
55540;BME280;41384;51.418;7.286;2023-05-14T01:35:39;100081.69;;;11.56;100.00
55540;BME280;41384;51.418;7.286;2023-05-14T01:38:11;100088.38;;;11.65;100.00
55540;BME280;41384;51.418;7.286;2023-05-14T01:40:38;100088.84;;;11.35;100.00
55540;BME280;41384;51.418;7.286;2023-05-14T01:43:03;100084.38;;;11.09;100.00
55540;BME280;41384;51.418;7.286;2023-05-14T01:45:29;100085.97;;;11.03;100.00
55540;BME280;41384;51.418;7.286;2023-05-14T01:47:56;100083.53;;;10.82;100.00
55540;BME280;41384;51.418;7.286;2023-05-14T01:50:22;100086.97;;;10.75;100.00
55540;BME280;41384;51.418;7.286;2023-05-14T01:52:47;100079.03;;;10.75;100.00
55540;BME280;41384;51.418;7.286;2023-05-14T01:55:13;100083.13;;;10.85;100.00
55540;BME280;41384;51.418;7.286;2023-05-14T01:57:39;100076.81;;;10.72;100.00
55540;BME280;41384;51.418;7.286;2023-05-14T02:00:05;100081.47;;;10.63;100.00
55540;BME280;41384;51.418;7.286;2023-05-14T02:02:31;100080.41;;;10.51;100.00
55540;BME280;41384;51.418;7.286;2023-05-14T02:04:56;100080.69;;;10.97;100.00
55540;BME280;41384;51.418;7.286;2023-05-14T02:07:21;100077.03;;;11.04;100.00
55540;BME280;41384;51.418;7.286;2023-05-14T02:09:46;100082.53;;;10.89;100.00
55540;BME280;41384;51.418;7.286;2023-05-14T02:12:12;100076.59;;;10.80;100.00
55540;BME280;41384;51.418;7.286;2023-05-14T02:14:37;100075.97;;;10.65;100.00
55540;BME280;41384;51.418;7.286;2023-05-14T02:17:02;100066.41;;;10.57;100.00
55540;BME280;41384;51.418;7.286;2023-05-14T02:19:28;100068.66;;;10.54;100.00
55540;BME280;41384;51.418;7.286;2023-05-14T02:21:54;100073.44;;;10.36;100.00
55540;BME280;41384;51.418;7.286;2023-05-14T02:24:19;100065.31;;;10.31;100.00
55540;BME280;41384;51.418;7.286;2023-05-14T02:26:44;100066.66;;;10.69;100.00
55540;BME280;41384;51.418;7.286;2023-05-14T02:29:10;100067.88;;;10.73;100.00
55540;BME280;41384;51.418;7.286;2023-05-14T02:31:35;100069.28;;;10.62;100.00
55540;BME280;41384;51.418;7.286;2023-05-14T02:34:02;100064.00;;;10.62;100.00
55540;BME280;41384;51.418;7.286;2023-05-14T02:36:28;100065.25;;;10.67;100.00
55540;BME280;41384;51.418;7.286;2023-05-14T02:38:53;100069.31;;;10.76;100.00
55540;BME280;41384;51.418;7.286;2023-05-14T02:41:18;100078.28;;;11.02;100.00
55540;BME280;41384;51.418;7.286;2023-05-14T02:43:44;100068.72;;;10.87;100.00
55540;BME280;41384;51.418;7.286;2023-05-14T02:46:09;100069.09;;;10.71;100.00
55540;BME280;41384;51.418;7.286;2023-05-14T02:48:34;100067.25;;;10.64;100.00
55540;BME280;41384;51.418;7.286;2023-05-14T02:50:59;100073.13;;;10.60;100.00
55540;BME280;41384;51.418;7.286;2023-05-14T02:53:25;100076.59;;;10.60;100.00
55540;BME280;41384;51.418;7.286;2023-05-14T02:55:50;100081.28;;;10.72;100.00
55540;BME280;41384;51.418;7.286;2023-05-14T02:58:15;100075.59;;;10.75;100.00
55540;BME280;41384;51.418;7.286;2023-05-14T03:00:41;100073.53;;;10.57;100.00
55540;BME280;41384;51.418;7.286;2023-05-14T03:03:06;100086.69;;;10.50;100.00
55540;BME280;41384;51.418;7.286;2023-05-14T03:05:31;100071.09;;;10.62;100.00
55540;BME280;41384;51.418;7.286;2023-05-14T03:07:57;100072.88;;;10.48;100.00
55540;BME280;41384;51.418;7.286;2023-05-14T03:10:22;100073.13;;;10.60;100.00
55540;BME280;41384;51.418;7.286;2023-05-14T03:12:47;100073.94;;;10.54;100.00
55540;BME280;41384;51.418;7.286;2023-05-14T03:15:13;100075.53;;;10.41;100.00
55540;BME280;41384;51.418;7.286;2023-05-14T03:17:38;100070.25;;;10.41;100.00
55540;BME280;41384;51.418;7.286;2023-05-14T03:20:04;100069.84;;;10.51;100.00
55540;BME280;41384;51.418;7.286;2023-05-14T03:22:29;100069.59;;;10.39;100.00
55540;BME280;41384;51.418;7.286;2023-05-14T03:24:55;100064.97;;;10.41;100.00
55540;BME280;41384;51.418;7.286;2023-05-14T03:27:20;100060.69;;;10.40;100.00
55540;BME280;41384;51.418;7.286;2023-05-14T03:29:45;100065.78;;;10.48;100.00
55540;BME280;41384;51.418;7.286;2023-05-14T03:32:10;100067.16;;;10.37;100.00
55540;BME280;41384;51.418;7.286;2023-05-14T03:34:36;100064.91;;;10.34;100.00
55540;BME280;41384;51.418;7.286;2023-05-14T03:37:01;100058.41;;;10.30;100.00
55540;BME280;41384;51.418;7.286;2023-05-14T03:39:26;100061.03;;;10.30;100.00
55540;BME280;41384;51.418;7.286;2023-05-14T03:41:52;100055.66;;;10.45;100.00
55540;BME280;41384;51.418;7.286;2023-05-14T03:44:17;100057.41;;;10.38;100.00
55540;BME280;41384;51.418;7.286;2023-05-14T03:46:42;100058.69;;;10.49;100.00
55540;BME280;41384;51.418;7.286;2023-05-14T03:49:08;100062.00;;;10.16;100.00
55540;BME280;41384;51.418;7.286;2023-05-14T03:51:33;100059.16;;;10.11;100.00
55540;BME280;41384;51.418;7.286;2023-05-14T03:53:59;100053.66;;;10.12;100.00
55540;BME280;41384;51.418;7.286;2023-05-14T03:56:24;100054.53;;;10.19;100.00
55540;BME280;41384;51.418;7.286;2023-05-14T03:58:50;100046.63;;;10.19;100.00
55540;BME280;41384;51.418;7.286;2023-05-14T04:01:15;100047.88;;;10.37;100.00
55540;BME280;41384;51.418;7.286;2023-05-14T04:03:41;100054.97;;;10.30;100.00
55540;BME280;41384;51.418;7.286;2023-05-14T04:06:06;100050.00;;;10.06;100.00
55540;BME280;41384;51.418;7.286;2023-05-14T04:08:31;100049.44;;;10.18;100.00
55540;BME280;41384;51.418;7.286;2023-05-14T04:10:56;100051.88;;;10.19;100.00
55540;BME280;41384;51.418;7.286;2023-05-14T04:13:22;100052.28;;;10.23;100.00
55540;BME280;41384;51.418;7.286;2023-05-14T04:15:47;100043.97;;;10.26;100.00
55540;BME280;41384;51.418;7.286;2023-05-14T04:18:12;100041.38;;;10.33;100.00
55540;BME280;41384;51.418;7.286;2023-05-14T04:20:38;100044.94;;;10.12;100.00
55540;BME280;41384;51.418;7.286;2023-05-14T04:23:03;100039.72;;;10.25;100.00
55540;BME280;41384;51.418;7.286;2023-05-14T04:25:28;100035.44;;;10.17;100.00
55540;BME280;41384;51.418;7.286;2023-05-14T04:27:54;100033.91;;;10.43;100.00
55540;BME280;41384;51.418;7.286;2023-05-14T04:30:19;100034.47;;;10.32;100.00
55540;BME280;41384;51.418;7.286;2023-05-14T04:32:45;100024.56;;;10.54;100.00
55540;BME280;41384;51.418;7.286;2023-05-14T04:35:10;100033.09;;;10.56;100.00
55540;BME280;41384;51.418;7.286;2023-05-14T04:37:37;100025.63;;;10.60;100.00
55540;BME280;41384;51.418;7.286;2023-05-14T04:40:03;100026.88;;;10.71;100.00
55540;BME280;41384;51.418;7.286;2023-05-14T04:42:29;100022.38;;;10.71;100.00
55540;BME280;41384;51.418;7.286;2023-05-14T04:44:54;100025.25;;;10.83;100.00
55540;BME280;41384;51.418;7.286;2023-05-14T04:47:19;100022.41;;;10.91;100.00
55540;BME280;41384;51.418;7.286;2023-05-14T04:49:45;100022.38;;;10.85;100.00
55540;BME280;41384;51.418;7.286;2023-05-14T04:52:10;100021.78;;;10.83;100.00
55540;BME280;41384;51.418;7.286;2023-05-14T04:54:35;100028.47;;;10.92;100.00
55540;BME280;41384;51.418;7.286;2023-05-14T04:57:00;100028.69;;;11.11;100.00
55540;BME280;41384;51.418;7.286;2023-05-14T04:59:30;100031.53;;;11.16;100.00
55540;BME280;41384;51.418;7.286;2023-05-14T05:01:55;100030.31;;;11.18;100.00
55540;BME280;41384;51.418;7.286;2023-05-14T05:04:21;100023.59;;;11.22;100.00
55540;BME280;41384;51.418;7.286;2023-05-14T05:06:48;100020.91;;;11.36;100.00
55540;BME280;41384;51.418;7.286;2023-05-14T05:09:13;100026.38;;;11.61;100.00
55540;BME280;41384;51.418;7.286;2023-05-14T05:11:38;100030.63;;;11.69;100.00
55540;BME280;41384;51.418;7.286;2023-05-14T05:14:04;100029.38;;;11.72;100.00
55540;BME280;41384;51.418;7.286;2023-05-14T05:16:29;100030.31;;;11.97;100.00
55540;BME280;41384;51.418;7.286;2023-05-14T05:18:54;100024.47;;;11.82;100.00
55540;BME280;41384;51.418;7.286;2023-05-14T05:21:20;100026.66;;;11.99;100.00
55540;BME280;41384;51.418;7.286;2023-05-14T05:23:45;100024.66;;;12.01;100.00
55540;BME280;41384;51.418;7.286;2023-05-14T05:26:10;100032.16;;;11.97;100.00
55540;BME280;41384;51.418;7.286;2023-05-14T05:28:36;100028.09;;;12.01;100.00
55540;BME280;41384;51.418;7.286;2023-05-14T05:31:01;100026.47;;;12.00;100.00
55540;BME280;41384;51.418;7.286;2023-05-14T05:33:26;100026.56;;;12.25;100.00
55540;BME280;41384;51.418;7.286;2023-05-14T05:35:51;100038.59;;;12.21;100.00
55540;BME280;41384;51.418;7.286;2023-05-14T05:38:17;100034.91;;;12.22;100.00
55540;BME280;41384;51.418;7.286;2023-05-14T05:40:42;100031.69;;;12.14;100.00
55540;BME280;41384;51.418;7.286;2023-05-14T05:43:08;100037.63;;;12.09;100.00
55540;BME280;41384;51.418;7.286;2023-05-14T05:45:33;100029.03;;;12.14;100.00
55540;BME280;41384;51.418;7.286;2023-05-14T05:47:58;100033.97;;;12.03;100.00
55540;BME280;41384;51.418;7.286;2023-05-14T05:50:24;100032.56;;;11.94;100.00
55540;BME280;41384;51.418;7.286;2023-05-14T05:52:50;100031.34;;;12.03;100.00
55540;BME280;41384;51.418;7.286;2023-05-14T05:55:16;100033.56;;;12.00;100.00
55540;BME280;41384;51.418;7.286;2023-05-14T05:57:41;100034.34;;;12.14;100.00
55540;BME280;41384;51.418;7.286;2023-05-14T06:00:07;100034.91;;;12.22;100.00
55540;BME280;41384;51.418;7.286;2023-05-14T06:02:39;100048.94;;;12.30;100.00
55540;BME280;41384;51.418;7.286;2023-05-14T06:05:05;100041.13;;;12.42;100.00
55540;BME280;41384;51.418;7.286;2023-05-14T06:07:31;100045.75;;;12.53;100.00
55540;BME280;41384;51.418;7.286;2023-05-14T06:09:56;100037.16;;;12.58;100.00
55540;BME280;41384;51.418;7.286;2023-05-14T06:12:22;100038.50;;;12.67;100.00
55540;BME280;41384;51.418;7.286;2023-05-14T06:14:47;100044.22;;;12.70;100.00
55540;BME280;41384;51.418;7.286;2023-05-14T06:17:12;100043.53;;;12.75;100.00
55540;BME280;41384;51.418;7.286;2023-05-14T06:19:37;100043.31;;;12.83;99.25
55540;BME280;41384;51.418;7.286;2023-05-14T06:22:03;100050.16;;;12.91;99.67
55540;BME280;41384;51.418;7.286;2023-05-14T06:24:28;100056.88;;;12.94;97.70
55540;BME280;41384;51.418;7.286;2023-05-14T06:26:53;100056.66;;;12.95;97.89
55540;BME280;41384;51.418;7.286;2023-05-14T06:29:18;100060.06;;;13.03;97.26
55540;BME280;41384;51.418;7.286;2023-05-14T06:31:44;100058.81;;;13.05;97.01
55540;BME280;41384;51.418;7.286;2023-05-14T06:34:09;100055.31;;;13.11;95.87
55540;BME280;41384;51.418;7.286;2023-05-14T06:36:35;100052.66;;;13.11;98.36
55540;BME280;41384;51.418;7.286;2023-05-14T06:39:00;100059.19;;;13.09;98.91
55540;BME280;41384;51.418;7.286;2023-05-14T06:41:25;100058.56;;;13.13;97.92
55540;BME280;41384;51.418;7.286;2023-05-14T06:43:51;100055.91;;;13.13;100.00
55540;BME280;41384;51.418;7.286;2023-05-14T06:46:16;100046.50;;;13.18;100.00
55540;BME280;41384;51.418;7.286;2023-05-14T06:48:41;100045.63;;;13.24;97.62
55540;BME280;41384;51.418;7.286;2023-05-14T06:51:06;100048.06;;;13.25;99.97
55540;BME280;41384;51.418;7.286;2023-05-14T06:53:32;100045.19;;;13.27;96.62
55540;BME280;41384;51.418;7.286;2023-05-14T06:55:57;100040.63;;;13.34;96.67
55540;BME280;41384;51.418;7.286;2023-05-14T06:58:22;100042.84;;;13.37;96.81
55540;BME280;41384;51.418;7.286;2023-05-14T07:00:47;100043.44;;;13.39;97.74
55540;BME280;41384;51.418;7.286;2023-05-14T07:03:13;100035.88;;;13.43;97.46
55540;BME280;41384;51.418;7.286;2023-05-14T07:05:38;100037.72;;;13.42;99.25
55540;BME280;41384;51.418;7.286;2023-05-14T07:08:05;100038.25;;;13.51;96.13
55540;BME280;41384;51.418;7.286;2023-05-14T07:10:30;100029.03;;;13.54;95.80
55540;BME280;41384;51.418;7.286;2023-05-14T07:12:56;100033.53;;;13.53;96.66
55540;BME280;41384;51.418;7.286;2023-05-14T07:15:21;100030.00;;;13.60;96.09
55540;BME280;41384;51.418;7.286;2023-05-14T07:17:46;100026.22;;;13.67;96.18
55540;BME280;41384;51.418;7.286;2023-05-14T07:20:12;100028.47;;;13.70;95.04
55540;BME280;41384;51.418;7.286;2023-05-14T07:22:37;100029.66;;;13.75;95.57
55540;BME280;41384;51.418;7.286;2023-05-14T07:25:02;100027.34;;;13.78;97.35
55540;BME280;41384;51.418;7.286;2023-05-14T07:27:27;100024.75;;;13.90;96.74
55540;BME280;41384;51.418;7.286;2023-05-14T07:29:53;100024.97;;;13.89;95.87
55540;BME280;41384;51.418;7.286;2023-05-14T07:32:18;100027.56;;;13.95;95.28
55540;BME280;41384;51.418;7.286;2023-05-14T07:34:43;100020.75;;;13.99;95.16
55540;BME280;41384;51.418;7.286;2023-05-14T07:37:08;100019.28;;;14.04;94.21
55540;BME280;41384;51.418;7.286;2023-05-14T07:39:34;100019.88;;;14.06;94.39
55540;BME280;41384;51.418;7.286;2023-05-14T07:42:00;100024.50;;;14.10;94.03
55540;BME280;41384;51.418;7.286;2023-05-14T07:44:25;100027.31;;;14.15;93.98
55540;BME280;41384;51.418;7.286;2023-05-14T07:46:50;100021.75;;;14.17;93.81
55540;BME280;41384;51.418;7.286;2023-05-14T07:49:15;100021.91;;;14.22;94.02
55540;BME280;41384;51.418;7.286;2023-05-14T07:51:41;100019.25;;;14.22;94.42
55540;BME280;41384;51.418;7.286;2023-05-14T07:54:06;100022.84;;;14.28;93.59
55540;BME280;41384;51.418;7.286;2023-05-14T07:56:31;100012.00;;;14.29;92.11
55540;BME280;41384;51.418;7.286;2023-05-14T07:58:56;100010.88;;;14.37;90.40
55540;BME280;41384;51.418;7.286;2023-05-14T08:01:24;100017.34;;;14.41;89.84
55540;BME280;41384;51.418;7.286;2023-05-14T08:03:50;100015.63;;;14.47;90.11
55540;BME280;41384;51.418;7.286;2023-05-14T08:06:15;100007.78;;;14.52;88.29
55540;BME280;41384;51.418;7.286;2023-05-14T08:08:40;100016.59;;;14.65;87.95
55540;BME280;41384;51.418;7.286;2023-05-14T08:11:06;100015.25;;;14.74;84.05
55540;BME280;41384;51.418;7.286;2023-05-14T08:13:31;100013.53;;;14.80;85.29
55540;BME280;41384;51.418;7.286;2023-05-14T08:15:56;100011.47;;;14.94;83.22
55540;BME280;41384;51.418;7.286;2023-05-14T08:18:22;100016.19;;;14.92;84.48
55540;BME280;41384;51.418;7.286;2023-05-14T08:20:47;100017.56;;;14.94;84.63
55540;BME280;41384;51.418;7.286;2023-05-14T08:23:13;100021.41;;;15.10;81.35
55540;BME280;41384;51.418;7.286;2023-05-14T08:25:38;100020.03;;;15.08;83.02
55540;BME280;41384;51.418;7.286;2023-05-14T08:28:03;100024.75;;;15.17;79.76
55540;BME280;41384;51.418;7.286;2023-05-14T08:30:29;100017.25;;;15.14;80.15
55540;BME280;41384;51.418;7.286;2023-05-14T08:32:54;100022.56;;;15.14;80.24
55540;BME280;41384;51.418;7.286;2023-05-14T08:35:19;100019.78;;;15.21;78.43
55540;BME280;41384;51.418;7.286;2023-05-14T08:37:45;100018.16;;;15.32;74.50
55540;BME280;41384;51.418;7.286;2023-05-14T08:40:10;100012.72;;;15.51;73.39
55540;BME280;41384;51.418;7.286;2023-05-14T08:42:37;100016.75;;;15.53;75.84
55540;BME280;41384;51.418;7.286;2023-05-14T08:45:17;100015.69;;;15.66;71.33
55540;BME280;41384;51.418;7.286;2023-05-14T08:47:46;100004.81;;;15.68;71.79
55540;BME280;41384;51.418;7.286;2023-05-14T08:50:13;100003.75;;;15.81;69.21
55540;BME280;41384;51.418;7.286;2023-05-14T08:52:38;100004.53;;;15.93;67.48
55540;BME280;41384;51.418;7.286;2023-05-14T08:55:04;99996.06;;;15.96;66.30
55540;BME280;41384;51.418;7.286;2023-05-14T08:57:33;100001.59;;;16.07;69.08
55540;BME280;41384;51.418;7.286;2023-05-14T08:59:59;100000.34;;;15.97;70.29
55540;BME280;41384;51.418;7.286;2023-05-14T09:02:29;100001.69;;;16.12;67.41
55540;BME280;41384;51.418;7.286;2023-05-14T09:04:57;99995.56;;;16.11;68.89
55540;BME280;41384;51.418;7.286;2023-05-14T09:07:23;99997.66;;;16.26;68.13
55540;BME280;41384;51.418;7.286;2023-05-14T09:09:50;99988.88;;;16.26;65.63
55540;BME280;41384;51.418;7.286;2023-05-14T09:12:15;99990.25;;;16.28;64.10
55540;BME280;41384;51.418;7.286;2023-05-14T09:14:40;99995.34;;;16.30;66.41
55540;BME280;41384;51.418;7.286;2023-05-14T09:17:07;99993.81;;;16.34;66.54
55540;BME280;41384;51.418;7.286;2023-05-14T09:19:33;99991.59;;;16.43;64.97
55540;BME280;41384;51.418;7.286;2023-05-14T09:21:58;99987.78;;;16.73;63.94
55540;BME280;41384;51.418;7.286;2023-05-14T09:24:24;99989.47;;;16.79;65.71
55540;BME280;41384;51.418;7.286;2023-05-14T09:26:55;99992.16;;;16.79;64.90
55540;BME280;41384;51.418;7.286;2023-05-14T09:29:23;99988.44;;;16.80;64.52
55540;BME280;41384;51.418;7.286;2023-05-14T09:31:50;99989.63;;;16.89;62.68
55540;BME280;41384;51.418;7.286;2023-05-14T09:34:32;99989.06;;;16.87;62.46
55540;BME280;41384;51.418;7.286;2023-05-14T09:37:00;99982.75;;;16.93;60.77
55540;BME280;41384;51.418;7.286;2023-05-14T09:39:26;99992.06;;;17.08;61.39
55540;BME280;41384;51.418;7.286;2023-05-14T09:41:52;99987.78;;;17.07;61.94
55540;BME280;41384;51.418;7.286;2023-05-14T09:44:18;99986.16;;;17.23;61.63
55540;BME280;41384;51.418;7.286;2023-05-14T09:46:44;99974.25;;;17.31;62.35
55540;BME280;41384;51.418;7.286;2023-05-14T09:49:10;99978.28;;;17.33;60.56
55540;BME280;41384;51.418;7.286;2023-05-14T09:51:36;99981.19;;;17.32;62.03
55540;BME280;41384;51.418;7.286;2023-05-14T09:54:03;99970.88;;;17.41;62.09
55540;BME280;41384;51.418;7.286;2023-05-14T09:56:28;99968.66;;;17.55;61.95
55540;BME280;41384;51.418;7.286;2023-05-14T09:58:53;99971.50;;;17.70;57.83
55540;BME280;41384;51.418;7.286;2023-05-14T10:01:19;99971.28;;;17.72;57.54
55540;BME280;41384;51.418;7.286;2023-05-14T10:03:47;99971.06;;;17.78;57.89
55540;BME280;41384;51.418;7.286;2023-05-14T10:06:15;99960.03;;;17.70;58.85
55540;BME280;41384;51.418;7.286;2023-05-14T10:08:43;99957.25;;;17.87;57.73
55540;BME280;41384;51.418;7.286;2023-05-14T10:11:18;99955.16;;;17.89;55.68
55540;BME280;41384;51.418;7.286;2023-05-14T10:13:54;99957.88;;;17.94;56.71
55540;BME280;41384;51.418;7.286;2023-05-14T10:16:30;99947.75;;;17.96;57.27
55540;BME280;41384;51.418;7.286;2023-05-14T10:19:04;99946.56;;;18.09;59.63
55540;BME280;41384;51.418;7.286;2023-05-14T10:21:34;99949.06;;;18.16;55.91
55540;BME280;41384;51.418;7.286;2023-05-14T10:24:00;99941.75;;;18.06;56.79
55540;BME280;41384;51.418;7.286;2023-05-14T10:26:26;99941.69;;;18.01;57.45
55540;BME280;41384;51.418;7.286;2023-05-14T10:28:52;99944.44;;;18.11;57.07
55540;BME280;41384;51.418;7.286;2023-05-14T10:31:22;99944.97;;;18.08;58.38
55540;BME280;41384;51.418;7.286;2023-05-14T10:33:49;99943.31;;;18.34;55.54
55540;BME280;41384;51.418;7.286;2023-05-14T10:36:16;99939.94;;;18.12;55.77
55540;BME280;41384;51.418;7.286;2023-05-14T10:38:42;99934.81;;;18.10;56.81
55540;BME280;41384;51.418;7.286;2023-05-14T10:41:14;99945.56;;;18.15;54.68
55540;BME280;41384;51.418;7.286;2023-05-14T10:43:42;99939.03;;;18.33;52.33
55540;BME280;41384;51.418;7.286;2023-05-14T10:46:09;99946.28;;;18.38;54.20
55540;BME280;41384;51.418;7.286;2023-05-14T10:48:36;99939.34;;;18.42;53.54
55540;BME280;41384;51.418;7.286;2023-05-14T10:51:02;99935.34;;;18.40;53.50
55540;BME280;41384;51.418;7.286;2023-05-14T10:55:57;99935.50;;;18.60;53.71
55540;BME280;41384;51.418;7.286;2023-05-14T10:58:22;99923.03;;;18.76;54.80
55540;BME280;41384;51.418;7.286;2023-05-14T11:00:48;99926.03;;;18.85;51.78
55540;BME280;41384;51.418;7.286;2023-05-14T11:03:14;99927.69;;;18.96;48.99
55540;BME280;41384;51.418;7.286;2023-05-14T11:05:40;99922.28;;;18.86;49.86
55540;BME280;41384;51.418;7.286;2023-05-14T11:08:07;99919.91;;;18.90;50.87
55540;BME280;41384;51.418;7.286;2023-05-14T11:10:32;99913.19;;;18.87;50.85
55540;BME280;41384;51.418;7.286;2023-05-14T11:12:58;99915.47;;;19.06;50.54
55540;BME280;41384;51.418;7.286;2023-05-14T11:15:24;99920.03;;;19.10;49.12
55540;BME280;41384;51.418;7.286;2023-05-14T11:17:51;99917.13;;;19.12;49.21
55540;BME280;41384;51.418;7.286;2023-05-14T11:20:17;99912.56;;;19.18;50.89
55540;BME280;41384;51.418;7.286;2023-05-14T11:22:44;99903.75;;;19.17;50.65
55540;BME280;41384;51.418;7.286;2023-05-14T11:25:10;99903.25;;;19.25;49.75
55540;BME280;41384;51.418;7.286;2023-05-14T11:27:39;99904.59;;;19.28;50.11
55540;BME280;41384;51.418;7.286;2023-05-14T11:30:12;99899.28;;;19.44;50.33
55540;BME280;41384;51.418;7.286;2023-05-14T11:32:37;99895.84;;;19.59;50.23
55540;BME280;41384;51.418;7.286;2023-05-14T11:35:03;99898.50;;;19.48;48.44
55540;BME280;41384;51.418;7.286;2023-05-14T11:37:29;99891.56;;;19.52;49.32
55540;BME280;41384;51.418;7.286;2023-05-14T11:39:57;99885.41;;;19.57;48.42
55540;BME280;41384;51.418;7.286;2023-05-14T11:42:22;99884.63;;;19.62;50.59
55540;BME280;41384;51.418;7.286;2023-05-14T11:44:50;99887.84;;;19.69;49.21
55540;BME280;41384;51.418;7.286;2023-05-14T11:47:18;99891.06;;;19.71;46.83
55540;BME280;41384;51.418;7.286;2023-05-14T11:49:44;99892.41;;;19.84;46.78
55540;BME280;41384;51.418;7.286;2023-05-14T11:52:10;99890.28;;;19.76;48.30
55540;BME280;41384;51.418;7.286;2023-05-14T11:54:38;99893.19;;;19.79;47.10
55540;BME280;41384;51.418;7.286;2023-05-14T11:57:12;99880.88;;;19.73;46.22
55540;BME280;41384;51.418;7.286;2023-05-14T11:59:38;99878.75;;;19.86;47.53
55540;BME280;41384;51.418;7.286;2023-05-14T12:02:04;99883.34;;;20.01;46.67
55540;BME280;41384;51.418;7.286;2023-05-14T12:04:30;99876.66;;;20.08;47.04
55540;BME280;41384;51.418;7.286;2023-05-14T12:06:57;99883.88;;;20.13;48.44
55540;BME280;41384;51.418;7.286;2023-05-14T12:09:22;99871.31;;;20.19;47.10
55540;BME280;41384;51.418;7.286;2023-05-14T12:11:49;99874.22;;;20.17;46.21
55540;BME280;41384;51.418;7.286;2023-05-14T12:14:16;99874.00;;;20.08;46.54
55540;BME280;41384;51.418;7.286;2023-05-14T12:16:43;99871.31;;;20.03;48.08
55540;BME280;41384;51.418;7.286;2023-05-14T12:19:09;99868.88;;;20.22;47.75
55540;BME280;41384;51.418;7.286;2023-05-14T12:21:38;99858.97;;;20.18;47.64
55540;BME280;41384;51.418;7.286;2023-05-14T12:24:09;99849.56;;;20.46;47.30
55540;BME280;41384;51.418;7.286;2023-05-14T12:26:34;99856.03;;;20.09;48.24
55540;BME280;41384;51.418;7.286;2023-05-14T12:29:01;99863.50;;;19.81;46.92
55540;BME280;41384;51.418;7.286;2023-05-14T12:31:28;99862.88;;;19.43;48.13
55540;BME280;41384;51.418;7.286;2023-05-14T12:33:54;99855.19;;;19.77;46.77
55540;BME280;41384;51.418;7.286;2023-05-14T12:36:19;99855.22;;;20.08;47.42
55540;BME280;41384;51.418;7.286;2023-05-14T12:38:44;99843.97;;;20.11;47.06
55540;BME280;41384;51.418;7.286;2023-05-14T12:41:10;99839.41;;;20.33;46.59
55540;BME280;41384;51.418;7.286;2023-05-14T12:43:35;99839.69;;;20.21;47.09
55540;BME280;41384;51.418;7.286;2023-05-14T12:46:00;99857.84;;;19.82;46.84
55540;BME280;41384;51.418;7.286;2023-05-14T12:48:25;99851.94;;;19.49;47.60
55540;BME280;41384;51.418;7.286;2023-05-14T12:50:51;99847.06;;;19.31;48.01